sensor_id;sensor_type;location;lat;lon;timestamp;temperature;humidity
546;DHT22;259;53.304;9.816;2023-08-31T00:00:49;17.50;99.90
546;DHT22;259;53.304;9.816;2023-08-31T00:03:17;17.50;99.90
546;DHT22;259;53.304;9.816;2023-08-31T00:05:43;17.50;99.90
546;DHT22;259;53.304;9.816;2023-08-31T00:08:09;17.50;99.90
546;DHT22;259;53.304;9.816;2023-08-31T00:10:37;17.50;99.90
546;DHT22;259;53.304;9.816;2023-08-31T00:13:03;17.50;99.90
546;DHT22;259;53.304;9.816;2023-08-31T00:15:30;17.50;99.90
546;DHT22;259;53.304;9.816;2023-08-31T00:17:58;17.50;99.90
546;DHT22;259;53.304;9.816;2023-08-31T00:20:25;17.50;99.90
546;DHT22;259;53.304;9.816;2023-08-31T00:22:51;17.50;99.90
546;DHT22;259;53.304;9.816;2023-08-31T00:25:16;17.50;99.90
546;DHT22;259;53.304;9.816;2023-08-31T00:27:42;17.50;99.90
546;DHT22;259;53.304;9.816;2023-08-31T00:30:10;17.50;99.90
546;DHT22;259;53.304;9.816;2023-08-31T00:32:37;17.50;99.90
546;DHT22;259;53.304;9.816;2023-08-31T00:35:05;17.40;99.90
546;DHT22;259;53.304;9.816;2023-08-31T00:37:30;17.40;99.90
546;DHT22;259;53.304;9.816;2023-08-31T00:39:56;17.50;99.90
546;DHT22;259;53.304;9.816;2023-08-31T00:42:22;17.40;99.90
546;DHT22;259;53.304;9.816;2023-08-31T00:44:48;17.40;99.90
546;DHT22;259;53.304;9.816;2023-08-31T00:47:14;17.40;99.90
546;DHT22;259;53.304;9.816;2023-08-31T00:49:41;17.40;99.90
546;DHT22;259;53.304;9.816;2023-08-31T00:52:07;17.30;99.90
546;DHT22;259;53.304;9.816;2023-08-31T00:54:34;17.30;99.90
546;DHT22;259;53.304;9.816;2023-08-31T00:56:59;17.30;99.90
546;DHT22;259;53.304;9.816;2023-08-31T00:59:25;17.30;99.90
546;DHT22;259;53.304;9.816;2023-08-31T01:02:05;17.30;99.90
546;DHT22;259;53.304;9.816;2023-08-31T01:04:58;17.30;99.90
546;DHT22;259;53.304;9.816;2023-08-31T01:07:50;17.30;99.90
546;DHT22;259;53.304;9.816;2023-08-31T01:13:15;17.30;99.90
546;DHT22;259;53.304;9.816;2023-08-31T01:15:43;17.30;99.90
546;DHT22;259;53.304;9.816;2023-08-31T01:18:14;17.30;99.90
546;DHT22;259;53.304;9.816;2023-08-31T01:24:01;17.20;99.90
546;DHT22;259;53.304;9.816;2023-08-31T01:26:27;17.20;99.90
546;DHT22;259;53.304;9.816;2023-08-31T01:28:55;17.30;99.90
546;DHT22;259;53.304;9.816;2023-08-31T01:31:21;17.20;99.90
546;DHT22;259;53.304;9.816;2023-08-31T01:33:47;17.20;99.90
546;DHT22;259;53.304;9.816;2023-08-31T01:39:14;17.20;99.90
546;DHT22;259;53.304;9.816;2023-08-31T01:41:48;17.20;99.90
546;DHT22;259;53.304;9.816;2023-08-31T01:44:18;17.10;99.90
546;DHT22;259;53.304;9.816;2023-08-31T01:46:53;17.20;99.90
546;DHT22;259;53.304;9.816;2023-08-31T01:49:21;17.10;99.90
546;DHT22;259;53.304;9.816;2023-08-31T01:51:47;17.10;99.90
546;DHT22;259;53.304;9.816;2023-08-31T01:54:13;17.10;99.90
546;DHT22;259;53.304;9.816;2023-08-31T01:56:39;17.10;99.90
546;DHT22;259;53.304;9.816;2023-08-31T01:59:04;17.10;99.90
546;DHT22;259;53.304;9.816;2023-08-31T02:01:32;17.10;99.90
546;DHT22;259;53.304;9.816;2023-08-31T02:03:58;17.10;99.90
546;DHT22;259;53.304;9.816;2023-08-31T02:06:24;17.10;99.90
546;DHT22;259;53.304;9.816;2023-08-31T02:08:49;17.10;99.90
546;DHT22;259;53.304;9.816;2023-08-31T02:11:15;17.10;99.90
546;DHT22;259;53.304;9.816;2023-08-31T02:13:42;17.10;99.90
546;DHT22;259;53.304;9.816;2023-08-31T02:16:07;17.00;99.90
546;DHT22;259;53.304;9.816;2023-08-31T02:18:33;17.00;99.90
546;DHT22;259;53.304;9.816;2023-08-31T02:20:59;17.00;99.90
546;DHT22;259;53.304;9.816;2023-08-31T02:23:24;17.00;99.90
546;DHT22;259;53.304;9.816;2023-08-31T02:25:50;17.00;99.90
546;DHT22;259;53.304;9.816;2023-08-31T02:28:16;17.00;99.90
546;DHT22;259;53.304;9.816;2023-08-31T02:30:45;17.00;99.90
546;DHT22;259;53.304;9.816;2023-08-31T02:33:11;16.90;99.90
546;DHT22;259;53.304;9.816;2023-08-31T02:35:37;17.00;99.90
546;DHT22;259;53.304;9.816;2023-08-31T02:38:03;16.90;99.90
546;DHT22;259;53.304;9.816;2023-08-31T02:40:28;16.90;99.90
546;DHT22;259;53.304;9.816;2023-08-31T02:42:54;16.90;99.90
546;DHT22;259;53.304;9.816;2023-08-31T02:45:20;16.90;99.90
546;DHT22;259;53.304;9.816;2023-08-31T02:47:46;16.90;99.90
546;DHT22;259;53.304;9.816;2023-08-31T02:50:12;16.90;99.90
546;DHT22;259;53.304;9.816;2023-08-31T02:52:38;16.90;99.90
546;DHT22;259;53.304;9.816;2023-08-31T02:55:04;16.90;99.90
546;DHT22;259;53.304;9.816;2023-08-31T02:57:30;16.80;99.90
546;DHT22;259;53.304;9.816;2023-08-31T02:59:56;16.80;99.90
546;DHT22;259;53.304;9.816;2023-08-31T03:02:21;16.80;99.90
546;DHT22;259;53.304;9.816;2023-08-31T03:04:47;16.80;99.90
546;DHT22;259;53.304;9.816;2023-08-31T03:07:13;16.90;99.90
546;DHT22;259;53.304;9.816;2023-08-31T03:09:40;16.80;99.90
546;DHT22;259;53.304;9.816;2023-08-31T03:12:06;16.80;99.90
546;DHT22;259;53.304;9.816;2023-08-31T03:14:32;16.80;99.90
546;DHT22;259;53.304;9.816;2023-08-31T03:16:58;16.80;99.90
546;DHT22;259;53.304;9.816;2023-08-31T03:19:23;16.80;99.90
546;DHT22;259;53.304;9.816;2023-08-31T03:21:50;16.70;99.90
546;DHT22;259;53.304;9.816;2023-08-31T03:24:15;16.70;99.90
546;DHT22;259;53.304;9.816;2023-08-31T03:26:41;16.70;99.90
546;DHT22;259;53.304;9.816;2023-08-31T03:29:07;16.70;99.90
546;DHT22;259;53.304;9.816;2023-08-31T03:31:33;16.70;99.90
546;DHT22;259;53.304;9.816;2023-08-31T03:33:59;16.70;99.90
546;DHT22;259;53.304;9.816;2023-08-31T03:36:24;16.70;99.90
546;DHT22;259;53.304;9.816;2023-08-31T03:38:50;16.70;99.90
546;DHT22;259;53.304;9.816;2023-08-31T03:41:16;16.60;99.90
546;DHT22;259;53.304;9.816;2023-08-31T03:43:41;16.60;99.90
546;DHT22;259;53.304;9.816;2023-08-31T03:46:07;16.60;99.90
546;DHT22;259;53.304;9.816;2023-08-31T03:48:33;16.60;99.90
546;DHT22;259;53.304;9.816;2023-08-31T03:50:58;16.60;99.90
546;DHT22;259;53.304;9.816;2023-08-31T03:53:24;16.60;99.90
546;DHT22;259;53.304;9.816;2023-08-31T03:55:50;16.60;99.90
546;DHT22;259;53.304;9.816;2023-08-31T03:58:16;16.60;99.90
546;DHT22;259;53.304;9.816;2023-08-31T04:00:42;16.60;99.90
546;DHT22;259;53.304;9.816;2023-08-31T04:03:08;16.60;99.90
546;DHT22;259;53.304;9.816;2023-08-31T04:05:35;16.60;99.90
546;DHT22;259;53.304;9.816;2023-08-31T04:08:01;16.60;99.90
546;DHT22;259;53.304;9.816;2023-08-31T04:10:27;16.60;99.90
546;DHT22;259;53.304;9.816;2023-08-31T04:12:55;16.60;99.90
546;DHT22;259;53.304;9.816;2023-08-31T04:15:21;16.60;99.90
546;DHT22;259;53.304;9.816;2023-08-31T04:17:46;16.50;99.90
546;DHT22;259;53.304;9.816;2023-08-31T04:20:12;16.50;99.90
546;DHT22;259;53.304;9.816;2023-08-31T04:22:38;16.50;99.90
546;DHT22;259;53.304;9.816;2023-08-31T04:25:04;16.50;99.90
546;DHT22;259;53.304;9.816;2023-08-31T04:27:30;16.50;99.90
546;DHT22;259;53.304;9.816;2023-08-31T04:29:58;16.40;99.90
546;DHT22;259;53.304;9.816;2023-08-31T04:32:24;16.50;99.90
546;DHT22;259;53.304;9.816;2023-08-31T04:34:51;16.40;99.90
546;DHT22;259;53.304;9.816;2023-08-31T04:37:17;16.40;99.90
546;DHT22;259;53.304;9.816;2023-08-31T04:39:43;16.40;99.90
546;DHT22;259;53.304;9.816;2023-08-31T04:42:08;16.40;99.90
546;DHT22;259;53.304;9.816;2023-08-31T04:44:34;16.40;99.90
546;DHT22;259;53.304;9.816;2023-08-31T04:47:00;16.40;99.90
546;DHT22;259;53.304;9.816;2023-08-31T04:49:26;16.40;99.90
546;DHT22;259;53.304;9.816;2023-08-31T04:51:52;16.40;99.90
546;DHT22;259;53.304;9.816;2023-08-31T04:54:18;16.40;99.90
546;DHT22;259;53.304;9.816;2023-08-31T04:56:44;16.40;99.90
546;DHT22;259;53.304;9.816;2023-08-31T04:59:10;16.40;99.90
546;DHT22;259;53.304;9.816;2023-08-31T05:01:35;16.40;99.90
546;DHT22;259;53.304;9.816;2023-08-31T05:04:02;16.40;99.90
546;DHT22;259;53.304;9.816;2023-08-31T05:06:28;16.40;99.90
546;DHT22;259;53.304;9.816;2023-08-31T05:08:54;16.30;99.90
546;DHT22;259;53.304;9.816;2023-08-31T05:11:19;16.40;99.90
546;DHT22;259;53.304;9.816;2023-08-31T05:13:46;16.40;99.90
546;DHT22;259;53.304;9.816;2023-08-31T05:16:12;16.40;99.90
546;DHT22;259;53.304;9.816;2023-08-31T05:18:38;16.40;99.90
546;DHT22;259;53.304;9.816;2023-08-31T05:21:05;16.30;99.90
546;DHT22;259;53.304;9.816;2023-08-31T05:23:31;16.30;99.90
546;DHT22;259;53.304;9.816;2023-08-31T05:25:58;16.40;99.90
546;DHT22;259;53.304;9.816;2023-08-31T05:28:24;16.30;99.90
546;DHT22;259;53.304;9.816;2023-08-31T05:30:51;16.30;99.90
546;DHT22;259;53.304;9.816;2023-08-31T05:33:18;16.30;99.90
546;DHT22;259;53.304;9.816;2023-08-31T05:35:44;16.30;99.90
546;DHT22;259;53.304;9.816;2023-08-31T05:38:11;16.30;99.90
546;DHT22;259;53.304;9.816;2023-08-31T05:40:37;16.30;99.90
546;DHT22;259;53.304;9.816;2023-08-31T05:43:03;16.20;99.90
546;DHT22;259;53.304;9.816;2023-08-31T05:45:34;16.20;99.90
546;DHT22;259;53.304;9.816;2023-08-31T05:48:00;16.20;99.90
546;DHT22;259;53.304;9.816;2023-08-31T05:50:30;16.20;99.90
546;DHT22;259;53.304;9.816;2023-08-31T05:52:56;16.20;99.90
546;DHT22;259;53.304;9.816;2023-08-31T05:55:21;16.20;99.90
546;DHT22;259;53.304;9.816;2023-08-31T05:57:47;16.20;99.90
546;DHT22;259;53.304;9.816;2023-08-31T06:00:13;16.20;99.90
546;DHT22;259;53.304;9.816;2023-08-31T06:02:39;16.20;99.90
546;DHT22;259;53.304;9.816;2023-08-31T06:05:05;16.20;99.90
546;DHT22;259;53.304;9.816;2023-08-31T06:07:32;16.20;99.90
546;DHT22;259;53.304;9.816;2023-08-31T06:09:57;16.20;99.90
546;DHT22;259;53.304;9.816;2023-08-31T06:12:23;16.10;99.90
546;DHT22;259;53.304;9.816;2023-08-31T06:14:49;16.10;99.90
546;DHT22;259;53.304;9.816;2023-08-31T06:17:14;16.10;99.90
546;DHT22;259;53.304;9.816;2023-08-31T06:19:41;16.20;99.90
546;DHT22;259;53.304;9.816;2023-08-31T06:22:08;16.10;99.90
546;DHT22;259;53.304;9.816;2023-08-31T06:24:33;16.10;99.90
546;DHT22;259;53.304;9.816;2023-08-31T06:27:00;16.10;99.90
546;DHT22;259;53.304;9.816;2023-08-31T06:29:26;16.10;99.90
546;DHT22;259;53.304;9.816;2023-08-31T06:31:51;16.10;99.90
546;DHT22;259;53.304;9.816;2023-08-31T06:34:17;16.10;99.90
546;DHT22;259;53.304;9.816;2023-08-31T06:36:43;16.10;99.90
546;DHT22;259;53.304;9.816;2023-08-31T06:39:09;16.10;99.90
546;DHT22;259;53.304;9.816;2023-08-31T06:41:34;16.10;99.90
546;DHT22;259;53.304;9.816;2023-08-31T06:44:02;16.10;99.90
546;DHT22;259;53.304;9.816;2023-08-31T06:46:28;16.10;99.90
546;DHT22;259;53.304;9.816;2023-08-31T06:48:54;16.10;99.90
546;DHT22;259;53.304;9.816;2023-08-31T06:51:20;16.10;99.90
546;DHT22;259;53.304;9.816;2023-08-31T06:53:46;16.10;99.90
546;DHT22;259;53.304;9.816;2023-08-31T06:56:12;16.00;99.90
546;DHT22;259;53.304;9.816;2023-08-31T06:58:37;16.00;99.90
546;DHT22;259;53.304;9.816;2023-08-31T07:01:06;16.00;99.90
546;DHT22;259;53.304;9.816;2023-08-31T07:03:31;16.00;99.90
546;DHT22;259;53.304;9.816;2023-08-31T07:05:57;16.00;99.90
546;DHT22;259;53.304;9.816;2023-08-31T07:08:23;16.00;99.90
546;DHT22;259;53.304;9.816;2023-08-31T07:10:51;16.00;99.90
546;DHT22;259;53.304;9.816;2023-08-31T07:13:17;16.00;99.90
546;DHT22;259;53.304;9.816;2023-08-31T07:15:43;16.00;99.90
546;DHT22;259;53.304;9.816;2023-08-31T07:18:09;16.00;99.90
546;DHT22;259;53.304;9.816;2023-08-31T07:20:34;16.00;99.90
546;DHT22;259;53.304;9.816;2023-08-31T07:23:00;16.00;99.90
546;DHT22;259;53.304;9.816;2023-08-31T07:25:26;15.90;99.90
546;DHT22;259;53.304;9.816;2023-08-31T07:27:52;15.90;99.90
546;DHT22;259;53.304;9.816;2023-08-31T07:30:18;15.90;99.90
546;DHT22;259;53.304;9.816;2023-08-31T07:32:44;15.90;99.90
546;DHT22;259;53.304;9.816;2023-08-31T07:35:10;15.90;99.90
546;DHT22;259;53.304;9.816;2023-08-31T07:37:35;15.90;99.90
546;DHT22;259;53.304;9.816;2023-08-31T07:40:03;15.90;99.90
546;DHT22;259;53.304;9.816;2023-08-31T07:42:34;15.90;99.90
546;DHT22;259;53.304;9.816;2023-08-31T07:45:00;15.90;99.90
546;DHT22;259;53.304;9.816;2023-08-31T07:47:26;15.90;99.90
546;DHT22;259;53.304;9.816;2023-08-31T07:49:51;15.90;99.90
546;DHT22;259;53.304;9.816;2023-08-31T07:52:17;16.00;99.90
546;DHT22;259;53.304;9.816;2023-08-31T07:54:43;16.00;99.90
546;DHT22;259;53.304;9.816;2023-08-31T07:57:08;16.00;99.90
546;DHT22;259;53.304;9.816;2023-08-31T07:59:34;15.90;99.90
546;DHT22;259;53.304;9.816;2023-08-31T08:01:59;15.90;99.90
546;DHT22;259;53.304;9.816;2023-08-31T08:04:25;16.00;99.90
546;DHT22;259;53.304;9.816;2023-08-31T08:06:52;16.00;99.90
546;DHT22;259;53.304;9.816;2023-08-31T08:09:17;16.00;99.90
546;DHT22;259;53.304;9.816;2023-08-31T08:11:43;16.00;99.90
546;DHT22;259;53.304;9.816;2023-08-31T08:14:09;16.00;99.90
546;DHT22;259;53.304;9.816;2023-08-31T08:16:34;16.00;99.90
546;DHT22;259;53.304;9.816;2023-08-31T08:19:01;16.00;99.90
546;DHT22;259;53.304;9.816;2023-08-31T08:21:26;16.00;99.90
546;DHT22;259;53.304;9.816;2023-08-31T08:23:52;15.90;99.90
546;DHT22;259;53.304;9.816;2023-08-31T08:26:18;16.00;99.90
546;DHT22;259;53.304;9.816;2023-08-31T08:28:44;16.00;99.90
546;DHT22;259;53.304;9.816;2023-08-31T08:31:10;16.00;99.90
546;DHT22;259;53.304;9.816;2023-08-31T08:33:35;16.00;99.90
546;DHT22;259;53.304;9.816;2023-08-31T08:36:01;16.00;99.90
546;DHT22;259;53.304;9.816;2023-08-31T08:38:27;16.00;99.90
546;DHT22;259;53.304;9.816;2023-08-31T08:40:53;16.00;99.90
546;DHT22;259;53.304;9.816;2023-08-31T08:43:25;16.00;99.90
546;DHT22;259;53.304;9.816;2023-08-31T08:45:53;15.90;99.90
546;DHT22;259;53.304;9.816;2023-08-31T08:48:20;15.90;99.90
546;DHT22;259;53.304;9.816;2023-08-31T08:50:46;15.90;99.90
546;DHT22;259;53.304;9.816;2023-08-31T08:53:13;16.00;99.90
546;DHT22;259;53.304;9.816;2023-08-31T08:55:41;16.00;99.90
546;DHT22;259;53.304;9.816;2023-08-31T08:58:07;16.00;99.90
546;DHT22;259;53.304;9.816;2023-08-31T09:00:33;16.00;99.90
546;DHT22;259;53.304;9.816;2023-08-31T09:03:00;16.00;99.90
546;DHT22;259;53.304;9.816;2023-08-31T09:05:26;16.10;99.90
546;DHT22;259;53.304;9.816;2023-08-31T09:10:43;16.10;99.90
546;DHT22;259;53.304;9.816;2023-08-31T09:13:11;16.10;99.90
546;DHT22;259;53.304;9.816;2023-08-31T09:15:45;16.10;99.90
546;DHT22;259;53.304;9.816;2023-08-31T09:18:26;16.10;99.90
546;DHT22;259;53.304;9.816;2023-08-31T09:20:57;16.10;99.90
546;DHT22;259;53.304;9.816;2023-08-31T09:23:23;16.10;99.90
546;DHT22;259;53.304;9.816;2023-08-31T09:25:51;16.20;99.90
546;DHT22;259;53.304;9.816;2023-08-31T09:28:23;16.00;99.90
546;DHT22;259;53.304;9.816;2023-08-31T09:30:52;16.00;99.90
546;DHT22;259;53.304;9.816;2023-08-31T09:33:20;16.00;99.90
546;DHT22;259;53.304;9.816;2023-08-31T09:36:00;16.00;99.90
546;DHT22;259;53.304;9.816;2023-08-31T09:38:26;16.10;99.90
546;DHT22;259;53.304;9.816;2023-08-31T09:41:06;16.10;99.90
546;DHT22;259;53.304;9.816;2023-08-31T09:43:32;16.10;99.90
546;DHT22;259;53.304;9.816;2023-08-31T09:45:59;16.10;99.90
546;DHT22;259;53.304;9.816;2023-08-31T09:48:26;16.20;99.90
546;DHT22;259;53.304;9.816;2023-08-31T09:50:52;16.10;99.90
546;DHT22;259;53.304;9.816;2023-08-31T09:53:20;16.10;99.90
546;DHT22;259;53.304;9.816;2023-08-31T09:55:47;16.10;99.90
546;DHT22;259;53.304;9.816;2023-08-31T09:58:20;16.50;99.90
546;DHT22;259;53.304;9.816;2023-08-31T10:00:46;16.10;99.90
546;DHT22;259;53.304;9.816;2023-08-31T10:03:14;16.10;99.90
546;DHT22;259;53.304;9.816;2023-08-31T10:05:44;15.90;99.90
546;DHT22;259;53.304;9.816;2023-08-31T10:08:11;16.10;99.90
546;DHT22;259;53.304;9.816;2023-08-31T10:10:38;16.10;99.90
546;DHT22;259;53.304;9.816;2023-08-31T10:13:05;16.30;99.90
546;DHT22;259;53.304;9.816;2023-08-31T10:15:33;16.10;99.90
546;DHT22;259;53.304;9.816;2023-08-31T10:18:02;16.50;99.90
546;DHT22;259;53.304;9.816;2023-08-31T10:20:30;16.10;99.90
546;DHT22;259;53.304;9.816;2023-08-31T10:23:05;16.60;99.90
546;DHT22;259;53.304;9.816;2023-08-31T10:28:23;16.30;99.90
546;DHT22;259;53.304;9.816;2023-08-31T10:33:57;16.50;99.90
546;DHT22;259;53.304;9.816;2023-08-31T10:36:40;16.20;99.90
546;DHT22;259;53.304;9.816;2023-08-31T10:39:18;16.20;99.90
546;DHT22;259;53.304;9.816;2023-08-31T10:41:55;16.20;99.90
546;DHT22;259;53.304;9.816;2023-08-31T10:44:30;16.30;99.90
546;DHT22;259;53.304;9.816;2023-08-31T10:46:59;16.30;99.90
546;DHT22;259;53.304;9.816;2023-08-31T10:49:26;16.30;99.90
546;DHT22;259;53.304;9.816;2023-08-31T10:51:55;16.10;99.90
546;DHT22;259;53.304;9.816;2023-08-31T10:54:23;16.20;99.90
546;DHT22;259;53.304;9.816;2023-08-31T10:59:49;16.20;99.90
546;DHT22;259;53.304;9.816;2023-08-31T11:07:43;16.30;99.90
546;DHT22;259;53.304;9.816;2023-08-31T11:10:15;16.40;99.90
546;DHT22;259;53.304;9.816;2023-08-31T11:12:49;16.30;99.90
546;DHT22;259;53.304;9.816;2023-08-31T11:15:18;16.30;99.90
546;DHT22;259;53.304;9.816;2023-08-31T11:17:46;16.30;99.90
546;DHT22;259;53.304;9.816;2023-08-31T11:20:15;16.30;99.90
546;DHT22;259;53.304;9.816;2023-08-31T11:22:44;16.40;99.90
546;DHT22;259;53.304;9.816;2023-08-31T11:25:12;16.30;99.90
546;DHT22;259;53.304;9.816;2023-08-31T11:27:39;16.30;99.90
546;DHT22;259;53.304;9.816;2023-08-31T11:30:15;16.40;99.90
546;DHT22;259;53.304;9.816;2023-08-31T11:32:45;16.40;99.90
546;DHT22;259;53.304;9.816;2023-08-31T11:35:13;16.50;99.90
546;DHT22;259;53.304;9.816;2023-08-31T11:37:41;16.40;99.90
546;DHT22;259;53.304;9.816;2023-08-31T11:40:08;16.40;99.90
546;DHT22;259;53.304;9.816;2023-08-31T11:42:34;16.40;99.90
546;DHT22;259;53.304;9.816;2023-08-31T11:45:00;16.40;99.90
546;DHT22;259;53.304;9.816;2023-08-31T11:47:26;16.40;99.90
546;DHT22;259;53.304;9.816;2023-08-31T11:49:53;16.40;99.90
546;DHT22;259;53.304;9.816;2023-08-31T11:52:19;16.40;99.90
546;DHT22;259;53.304;9.816;2023-08-31T11:54:45;16.50;99.90
546;DHT22;259;53.304;9.816;2023-08-31T11:57:11;16.50;99.90
546;DHT22;259;53.304;9.816;2023-08-31T11:59:38;16.50;99.90
546;DHT22;259;53.304;9.816;2023-08-31T12:02:08;16.50;99.90
546;DHT22;259;53.304;9.816;2023-08-31T12:04:45;16.50;99.90
546;DHT22;259;53.304;9.816;2023-08-31T12:07:11;16.60;99.90
546;DHT22;259;53.304;9.816;2023-08-31T12:09:41;16.60;99.90
546;DHT22;259;53.304;9.816;2023-08-31T12:12:10;16.60;99.90
546;DHT22;259;53.304;9.816;2023-08-31T12:14:37;16.60;99.90
546;DHT22;259;53.304;9.816;2023-08-31T12:17:07;16.60;99.90
546;DHT22;259;53.304;9.816;2023-08-31T12:19:36;16.70;99.90
546;DHT22;259;53.304;9.816;2023-08-31T12:22:03;16.70;99.90
546;DHT22;259;53.304;9.816;2023-08-31T12:24:29;16.70;99.90
546;DHT22;259;53.304;9.816;2023-08-31T12:26:55;16.70;99.90
546;DHT22;259;53.304;9.816;2023-08-31T12:29:22;16.70;99.90
546;DHT22;259;53.304;9.816;2023-08-31T12:31:48;16.70;99.90
546;DHT22;259;53.304;9.816;2023-08-31T12:34:15;16.70;99.90
546;DHT22;259;53.304;9.816;2023-08-31T12:36:40;16.70;99.90
546;DHT22;259;53.304;9.816;2023-08-31T12:39:07;16.80;99.90
546;DHT22;259;53.304;9.816;2023-08-31T12:41:39;16.80;99.90
546;DHT22;259;53.304;9.816;2023-08-31T12:44:06;16.80;99.90
546;DHT22;259;53.304;9.816;2023-08-31T12:46:32;16.80;99.90
546;DHT22;259;53.304;9.816;2023-08-31T12:49:00;16.70;99.90
546;DHT22;259;53.304;9.816;2023-08-31T12:51:28;16.70;99.90
546;DHT22;259;53.304;9.816;2023-08-31T12:53:54;16.70;99.90
546;DHT22;259;53.304;9.816;2023-08-31T12:56:19;16.70;99.90
546;DHT22;259;53.304;9.816;2023-08-31T12:58:49;16.70;99.90
546;DHT22;259;53.304;9.816;2023-08-31T13:01:18;16.70;99.90
546;DHT22;259;53.304;9.816;2023-08-31T13:03:46;16.70;99.90
546;DHT22;259;53.304;9.816;2023-08-31T13:06:13;16.70;99.90
546;DHT22;259;53.304;9.816;2023-08-31T13:08:39;16.70;99.90
546;DHT22;259;53.304;9.816;2023-08-31T13:11:05;16.70;99.90
546;DHT22;259;53.304;9.816;2023-08-31T13:13:32;16.70;99.90
546;DHT22;259;53.304;9.816;2023-08-31T13:15:58;16.70;99.90
546;DHT22;259;53.304;9.816;2023-08-31T13:18:23;16.70;99.90
546;DHT22;259;53.304;9.816;2023-08-31T13:20:53;16.70;99.90
546;DHT22;259;53.304;9.816;2023-08-31T13:23:19;16.70;99.90
546;DHT22;259;53.304;9.816;2023-08-31T13:25:46;16.70;99.90
546;DHT22;259;53.304;9.816;2023-08-31T13:28:12;16.70;99.90
546;DHT22;259;53.304;9.816;2023-08-31T13:30:38;16.70;99.90
546;DHT22;259;53.304;9.816;2023-08-31T13:33:04;16.60;99.90
546;DHT22;259;53.304;9.816;2023-08-31T13:35:33;16.60;99.90
546;DHT22;259;53.304;9.816;2023-08-31T13:37:59;16.70;99.90
546;DHT22;259;53.304;9.816;2023-08-31T13:40:24;16.60;99.90
546;DHT22;259;53.304;9.816;2023-08-31T13:42:55;16.60;99.90
546;DHT22;259;53.304;9.816;2023-08-31T13:45:29;16.60;99.90
546;DHT22;259;53.304;9.816;2023-08-31T13:47:56;16.60;99.90
546;DHT22;259;53.304;9.816;2023-08-31T13:50:22;16.60;99.90
546;DHT22;259;53.304;9.816;2023-08-31T13:52:48;16.60;99.90
546;DHT22;259;53.304;9.816;2023-08-31T13:55:14;16.60;99.90
546;DHT22;259;53.304;9.816;2023-08-31T13:57:42;16.60;99.90
546;DHT22;259;53.304;9.816;2023-08-31T14:00:09;16.60;99.90
546;DHT22;259;53.304;9.816;2023-08-31T14:02:36;16.60;99.90
546;DHT22;259;53.304;9.816;2023-08-31T14:05:03;16.60;99.90
546;DHT22;259;53.304;9.816;2023-08-31T14:07:32;16.60;99.90
546;DHT22;259;53.304;9.816;2023-08-31T14:09:58;16.60;99.90
546;DHT22;259;53.304;9.816;2023-08-31T14:12:24;16.70;99.90
546;DHT22;259;53.304;9.816;2023-08-31T14:14:51;16.70;99.90
546;DHT22;259;53.304;9.816;2023-08-31T14:17:18;16.70;99.90
546;DHT22;259;53.304;9.816;2023-08-31T14:19:44;16.80;99.90
546;DHT22;259;53.304;9.816;2023-08-31T14:22:09;16.80;99.90
546;DHT22;259;53.304;9.816;2023-08-31T14:24:36;16.80;99.90
546;DHT22;259;53.304;9.816;2023-08-31T14:27:03;16.80;99.90
546;DHT22;259;53.304;9.816;2023-08-31T14:29:29;16.80;99.90
546;DHT22;259;53.304;9.816;2023-08-31T14:31:55;16.90;99.90
546;DHT22;259;53.304;9.816;2023-08-31T14:34:21;16.90;99.90
546;DHT22;259;53.304;9.816;2023-08-31T14:36:47;17.00;99.90
546;DHT22;259;53.304;9.816;2023-08-31T14:39:13;17.20;99.90
546;DHT22;259;53.304;9.816;2023-08-31T14:41:40;17.10;99.90
546;DHT22;259;53.304;9.816;2023-08-31T14:44:06;17.20;99.90
546;DHT22;259;53.304;9.816;2023-08-31T14:46:32;17.20;99.90
546;DHT22;259;53.304;9.816;2023-08-31T14:48:58;17.30;99.90
546;DHT22;259;53.304;9.816;2023-08-31T14:51:24;17.30;99.90
546;DHT22;259;53.304;9.816;2023-08-31T14:53:49;17.40;99.90
546;DHT22;259;53.304;9.816;2023-08-31T14:56:15;17.40;99.90
546;DHT22;259;53.304;9.816;2023-08-31T14:58:41;17.50;99.90
546;DHT22;259;53.304;9.816;2023-08-31T15:01:06;17.50;99.90
546;DHT22;259;53.304;9.816;2023-08-31T15:03:33;17.50;99.90
546;DHT22;259;53.304;9.816;2023-08-31T15:05:58;17.50;99.90
546;DHT22;259;53.304;9.816;2023-08-31T15:08:35;17.60;99.90
546;DHT22;259;53.304;9.816;2023-08-31T15:11:03;17.60;99.90
546;DHT22;259;53.304;9.816;2023-08-31T15:13:29;17.60;99.90
546;DHT22;259;53.304;9.816;2023-08-31T15:15:55;17.60;99.90
546;DHT22;259;53.304;9.816;2023-08-31T15:18:20;17.50;99.90
546;DHT22;259;53.304;9.816;2023-08-31T15:20:47;17.50;99.90
546;DHT22;259;53.304;9.816;2023-08-31T15:23:13;17.50;99.90
546;DHT22;259;53.304;9.816;2023-08-31T15:25:38;17.50;99.90
546;DHT22;259;53.304;9.816;2023-08-31T15:28:04;17.50;99.90
546;DHT22;259;53.304;9.816;2023-08-31T15:30:30;17.40;99.90
546;DHT22;259;53.304;9.816;2023-08-31T15:33:01;17.40;99.90
546;DHT22;259;53.304;9.816;2023-08-31T15:35:28;17.40;99.90
546;DHT22;259;53.304;9.816;2023-08-31T15:37:54;17.40;99.90
546;DHT22;259;53.304;9.816;2023-08-31T15:40:20;17.40;99.90
546;DHT22;259;53.304;9.816;2023-08-31T15:42:47;17.40;99.90
546;DHT22;259;53.304;9.816;2023-08-31T15:45:13;17.40;99.90
546;DHT22;259;53.304;9.816;2023-08-31T15:47:38;17.40;99.90
546;DHT22;259;53.304;9.816;2023-08-31T15:50:04;17.40;99.90
546;DHT22;259;53.304;9.816;2023-08-31T15:52:31;17.40;99.90
546;DHT22;259;53.304;9.816;2023-08-31T15:54:57;17.40;99.90
546;DHT22;259;53.304;9.816;2023-08-31T15:57:24;17.40;99.90
546;DHT22;259;53.304;9.816;2023-08-31T15:59:50;17.40;99.90
546;DHT22;259;53.304;9.816;2023-08-31T16:02:16;17.40;99.90
546;DHT22;259;53.304;9.816;2023-08-31T16:04:42;17.40;99.90
546;DHT22;259;53.304;9.816;2023-08-31T16:07:10;17.40;99.90
546;DHT22;259;53.304;9.816;2023-08-31T16:09:37;17.40;99.90
546;DHT22;259;53.304;9.816;2023-08-31T16:12:03;17.40;99.90
546;DHT22;259;53.304;9.816;2023-08-31T16:14:29;17.40;99.90
546;DHT22;259;53.304;9.816;2023-08-31T16:16:55;17.40;99.90
546;DHT22;259;53.304;9.816;2023-08-31T16:19:21;17.40;99.90
546;DHT22;259;53.304;9.816;2023-08-31T16:21:46;17.30;99.90
546;DHT22;259;53.304;9.816;2023-08-31T16:24:14;17.30;99.90
546;DHT22;259;53.304;9.816;2023-08-31T16:26:40;17.30;99.90
546;DHT22;259;53.304;9.816;2023-08-31T16:29:07;17.30;99.90
546;DHT22;259;53.304;9.816;2023-08-31T16:31:32;17.30;99.90
546;DHT22;259;53.304;9.816;2023-08-31T16:33:58;17.30;99.90
546;DHT22;259;53.304;9.816;2023-08-31T16:36:25;17.30;99.90
546;DHT22;259;53.304;9.816;2023-08-31T16:38:51;17.30;99.90
546;DHT22;259;53.304;9.816;2023-08-31T16:41:16;17.30;99.90
546;DHT22;259;53.304;9.816;2023-08-31T16:43:42;17.30;99.90
546;DHT22;259;53.304;9.816;2023-08-31T16:46:08;17.30;99.90
546;DHT22;259;53.304;9.816;2023-08-31T16:48:34;17.30;99.90
546;DHT22;259;53.304;9.816;2023-08-31T16:50:59;17.20;99.90
546;DHT22;259;53.304;9.816;2023-08-31T16:53:25;17.20;99.90
546;DHT22;259;53.304;9.816;2023-08-31T16:55:51;17.30;99.90
546;DHT22;259;53.304;9.816;2023-08-31T16:58:17;17.20;99.90